TimeMST,TemperatureF,Dew PointF,Humidity,Sea Level PressureIn,VisibilityMPH,Wind Direction,Wind SpeedMPH,Gust SpeedMPH,PrecipitationIn,Events,Conditions,WindDirDegrees,DateUTC
12:53 AM,17.1,12.9,84,30.46,-9999.0,SE,4.6,-,N/A,,Clear,140,2013-02-15 07:53:00
1:53 AM,21.0,14.0,74,30.44,-9999.0,SE,4.6,-,N/A,,Clear,140,2013-02-15 08:53:00
2:53 AM,21.0,14.0,74,30.46,-9999.0,Calm,Calm,-,N/A,,Clear,0,2013-02-15 09:53:00
3:53 AM,21.9,15.1,75,30.44,-9999.0,SSE,8.1,-,N/A,,Clear,160,2013-02-15 10:53:00
4:53 AM,21.0,14.0,74,30.46,-9999.0,South,5.8,-,N/A,,Clear,180,2013-02-15 11:53:00
5:53 AM,21.0,15.1,78,30.49,-9999.0,South,6.9,-,N/A,,Clear,190,2013-02-15 12:53:00
6:53 AM,21.9,15.1,75,30.50,-9999.0,SSW,4.6,-,N/A,,Clear,200,2013-02-15 13:53:00
7:53 AM,23.0,15.1,72,30.51,-9999.0,West,3.5,-,N/A,,Clear,270,2013-02-15 14:53:00
8:53 AM,23.0,16.0,74,30.55,-9999.0,Calm,Calm,-,N/A,,Clear,0,2013-02-15 15:53:00
9:53 AM,28.0,17.1,63,30.51,10.0,Calm,Calm,-,N/A,,Clear,0,2013-02-15 16:53:00
10:53 AM,34.0,18.0,52,30.47,10.0,Calm,Calm,-,N/A,,Clear,0,2013-02-15 17:53:00
11:53 AM,39.0,19.9,46,30.46,10.0,SSW,13.8,17.3,N/A,,Clear,210,2013-02-15 18:53:00
12:53 PM,42.1,19.9,41,30.44,10.0,SW,16.1,25.3,N/A,,Clear,230,2013-02-15 19:53:00
1:53 PM,44.1,19.9,38,30.39,10.0,SW,17.3,23.0,N/A,,Clear,230,2013-02-15 20:53:00
2:53 PM,44.1,19.9,38,30.38,10.0,West,11.5,-,N/A,,Clear,270,2013-02-15 21:53:00
3:53 PM,44.1,19.9,38,30.37,10.0,SW,8.1,-,N/A,,Clear,230,2013-02-15 22:53:00
4:53 PM,44.1,21.0,40,30.36,10.0,SW,12.7,17.3,N/A,,Clear,230,2013-02-15 23:53:00
5:53 PM,37.9,21.0,51,30.38,10.0,SSW,8.1,-,N/A,,Clear,210,2013-02-16 00:53:00
6:53 PM,34.0,21.0,59,30.40,10.0,SSW,13.8,-,N/A,,Clear,200,2013-02-16 01:53:00
7:53 PM,34.0,21.0,59,30.39,10.0,SSW,13.8,-,N/A,,Clear,210,2013-02-16 02:53:00
8:53 PM,32.0,19.9,61,30.39,10.0,SSW,12.7,-,N/A,,Clear,200,2013-02-16 03:53:00
9:53 PM,32.0,19.9,61,30.37,10.0,SW,17.3,-,N/A,,Clear,220,2013-02-16 04:53:00
10:53 PM,28.9,19.0,67,30.35,10.0,South,8.1,-,N/A,,Clear,180,2013-02-16 05:53:00
11:53 PM,30.0,18.0,61,30.32,10.0,SW,17.3,-,N/A,,Clear,220,2013-02-16 06:53:00